createdAt,value
2023-09-08T00:00:22.430Z,100044.64
2023-09-08T00:03:10.837Z,100041.66
2023-09-08T00:05:39.439Z,100045.16
2023-09-08T00:08:07.738Z,100042.23
2023-09-08T00:10:36.034Z,100043.35
2023-09-08T00:13:04.624Z,100034.38
2023-09-08T00:15:36.672Z,100031.45
2023-09-08T00:18:05.489Z,100032.30
2023-09-08T00:20:33.849Z,100027.66
2023-09-08T00:23:02.280Z,100025.60
2023-09-08T00:25:30.732Z,100024.16
2023-09-08T00:28:05.537Z,100027.50
2023-09-08T00:30:33.838Z,100030.20
2023-09-08T00:33:02.452Z,100028.45
2023-09-08T00:35:31.207Z,100029.00
2023-09-08T00:37:59.706Z,100030.05
2023-09-08T00:40:29.913Z,100026.27
2023-09-08T00:42:58.212Z,100028.06
2023-09-08T00:45:31.033Z,100024.93
2023-09-08T00:48:00.340Z,100026.83
2023-09-08T00:50:29.037Z,100026.73
2023-09-08T00:52:57.900Z,100027.05
2023-09-08T00:55:26.397Z,100025.29
2023-09-08T00:57:54.884Z,100024.16
2023-09-08T01:00:23.276Z,100026.23
2023-09-08T01:02:51.712Z,100028.95
2023-09-08T01:05:22.045Z,100020.44
2023-09-08T01:07:52.370Z,100018.30
2023-09-08T01:10:20.870Z,100017.20
2023-09-08T01:12:49.176Z,100015.73
2023-09-08T01:15:17.439Z,100016.23
2023-09-08T01:17:45.881Z,100019.16
2023-09-08T01:20:25.803Z,100019.92
2023-09-08T01:23:19.906Z,100016.71
2023-09-08T01:25:55.602Z,100013.96
2023-09-08T01:28:25.983Z,100015.02
2023-09-08T01:30:57.090Z,100012.61
2023-09-08T01:33:27.699Z,100018.98
2023-09-08T01:35:56.450Z,100016.76
2023-09-08T01:38:26.271Z,100015.65
2023-09-08T01:40:54.750Z,100015.20
2023-09-08T01:43:22.934Z,100011.84
2023-09-08T01:45:51.081Z,100012.96
2023-09-08T01:48:19.361Z,100014.19
2023-09-08T01:50:49.004Z,100012.44
2023-09-08T01:53:17.090Z,100009.89
2023-09-08T01:55:45.394Z,100012.69
2023-09-08T01:58:14.140Z,100014.63
2023-09-08T02:00:42.404Z,100014.05
2023-09-08T02:03:10.710Z,100015.59
2023-09-08T02:05:40.344Z,100019.02
2023-09-08T02:08:08.954Z,100018.30
2023-09-08T02:10:37.301Z,100017.53
2023-09-08T02:13:05.546Z,100015.78
2023-09-08T02:15:38.009Z,100019.84
2023-09-08T02:18:08.526Z,100020.86
2023-09-08T02:20:37.517Z,100020.33
2023-09-08T02:23:08.117Z,100019.17
2023-09-08T02:25:36.548Z,100015.08
2023-09-08T02:28:05.382Z,100013.23
2023-09-08T02:30:33.814Z,100010.16
2023-09-08T02:33:04.474Z,100004.91
2023-09-08T02:35:38.195Z,100001.76
2023-09-08T02:38:07.020Z,99993.48
2023-09-08T02:40:35.956Z,99996.85
2023-09-08T02:43:05.856Z,99992.35
2023-09-08T02:45:36.450Z,99990.98
2023-09-08T02:48:05.487Z,99991.70
2023-09-08T02:50:34.250Z,99990.48
2023-09-08T02:53:02.541Z,99986.88
2023-09-08T02:55:31.648Z,99984.52
2023-09-08T02:57:59.877Z,99987.34
2023-09-08T03:00:29.297Z,99985.11
2023-09-08T03:02:57.523Z,99983.63
2023-09-08T03:05:26.976Z,99982.42
2023-09-08T03:07:55.152Z,99979.45
2023-09-08T03:10:23.716Z,99981.98
2023-09-08T03:12:52.024Z,99984.94
2023-09-08T03:15:20.254Z,99983.02
2023-09-08T03:17:48.372Z,99978.17
2023-09-08T03:20:16.753Z,99979.02
2023-09-08T03:22:44.946Z,99975.48
2023-09-08T03:25:17.738Z,99976.45
2023-09-08T03:27:45.939Z,99976.33
2023-09-08T03:30:14.626Z,99980.15
2023-09-08T03:32:43.274Z,99981.04
2023-09-08T03:35:11.842Z,99984.75
2023-09-08T03:37:40.444Z,99983.52
2023-09-08T03:40:10.590Z,99980.33
2023-09-08T03:42:39.164Z,99976.66
2023-09-08T03:45:07.744Z,99975.27
2023-09-08T03:47:36.837Z,99975.04
2023-09-08T03:50:05.701Z,99973.51
2023-09-08T03:52:34.020Z,99970.02
2023-09-08T03:55:02.627Z,99969.73
2023-09-08T03:57:30.940Z,99969.23
2023-09-08T03:59:59.287Z,99965.34
2023-09-08T04:02:27.521Z,99963.45
2023-09-08T04:04:56.391Z,99962.35
2023-09-08T04:07:24.719Z,99968.29
2023-09-08T04:09:52.920Z,99967.46
2023-09-08T04:12:21.238Z,99970.84
2023-09-08T04:14:50.493Z,99965.52
2023-09-08T04:17:19.626Z,99961.40
2023-09-08T04:19:47.794Z,99960.96
2023-09-08T04:22:16.056Z,99964.98
2023-09-08T04:24:44.877Z,99966.65
2023-09-08T04:27:15.546Z,99966.02
2023-09-08T04:29:44.349Z,99968.46
2023-09-08T04:32:12.837Z,99970.88
2023-09-08T04:34:43.502Z,99972.92
2023-09-08T04:37:11.900Z,99976.52
2023-09-08T04:39:40.291Z,99977.23
2023-09-08T04:42:09.290Z,99978.84
2023-09-08T04:44:37.653Z,99978.45
2023-09-08T04:47:06.623Z,99974.79
2023-09-08T04:49:35.290Z,99974.62
2023-09-08T04:52:03.687Z,99978.32
2023-09-08T04:54:33.093Z,99976.23
2023-09-08T04:57:16.071Z,99974.95
2023-09-08T04:59:50.344Z,99969.96
2023-09-08T05:02:20.032Z,99964.34
2023-09-08T05:04:49.139Z,99965.38
2023-09-08T05:07:20.273Z,99967.27
2023-09-08T05:09:49.221Z,99970.19
2023-09-08T05:12:17.659Z,99966.29
2023-09-08T05:14:45.902Z,99964.98
2023-09-08T05:17:14.219Z,99965.20
2023-09-08T05:19:42.413Z,99966.21
2023-09-08T05:22:10.663Z,99970.77
2023-09-08T05:24:38.926Z,99976.73
2023-09-08T05:27:07.519Z,99979.58
2023-09-08T05:29:35.916Z,99979.34
2023-09-08T05:32:04.543Z,99978.77
2023-09-08T05:34:32.896Z,99978.90
2023-09-08T05:37:01.155Z,99976.38
2023-09-08T05:39:29.431Z,99979.27
2023-09-08T05:41:58.528Z,99982.28
2023-09-08T05:44:26.806Z,99981.87
2023-09-08T05:46:56.067Z,99981.68
2023-09-08T05:49:26.156Z,99978.63
2023-09-08T05:51:54.475Z,99977.86
2023-09-08T05:54:23.330Z,99976.95
2023-09-08T05:56:52.033Z,99973.54
2023-09-08T05:59:20.326Z,99971.58
2023-09-08T06:01:48.739Z,99973.44
2023-09-08T06:04:17.384Z,99974.45
2023-09-08T06:06:46.499Z,99975.91
2023-09-08T06:09:17.670Z,99973.73
2023-09-08T06:11:47.337Z,99972.31
2023-09-08T06:14:15.739Z,99972.62
2023-09-08T06:16:47.500Z,99971.38
2023-09-08T06:19:16.077Z,99970.19
2023-09-08T06:21:44.791Z,99973.09
2023-09-08T06:24:14.195Z,99968.41
2023-09-08T06:26:44.026Z,99969.52
2023-09-08T06:29:12.807Z,99969.77
2023-09-08T06:31:41.061Z,99964.65
2023-09-08T06:34:09.710Z,99963.84
2023-09-08T06:36:38.952Z,99966.65
2023-09-08T06:39:07.199Z,99965.95
2023-09-08T06:41:35.557Z,99964.86
2023-09-08T06:44:04.529Z,99966.59
2023-09-08T06:46:33.069Z,99960.89
2023-09-08T06:49:02.962Z,99959.80
2023-09-08T06:51:33.674Z,99955.63
2023-09-08T06:54:02.521Z,99957.74
2023-09-08T06:56:38.026Z,99953.14
2023-09-08T06:59:06.481Z,99953.44
2023-09-08T07:01:36.078Z,99946.63
2023-09-08T07:04:04.896Z,99944.71
2023-09-08T07:06:33.771Z,99941.02
2023-09-08T07:09:03.199Z,99941.42
2023-09-08T07:11:31.905Z,99941.15
2023-09-08T07:14:00.271Z,99939.77
2023-09-08T07:16:28.712Z,99938.38
2023-09-08T07:18:57.035Z,99938.48
2023-09-08T07:21:25.299Z,99933.05
2023-09-08T07:23:55.067Z,99932.00
2023-09-08T07:26:23.349Z,99935.98
2023-09-08T07:28:51.716Z,99930.46
2023-09-08T07:31:20.119Z,99928.98
2023-09-08T07:33:49.976Z,99928.72
2023-09-08T07:36:18.619Z,99926.02
2023-09-08T07:38:47.667Z,99924.34
2023-09-08T07:41:16.157Z,99921.95
2023-09-08T07:43:47.268Z,99922.87
2023-09-08T07:46:17.122Z,99923.20
2023-09-08T07:48:45.668Z,99924.37
2023-09-08T07:51:13.992Z,99922.13
2023-09-08T07:53:42.382Z,99918.23
2023-09-08T07:56:10.710Z,99917.17
2023-09-08T07:58:41.072Z,99917.38
2023-09-08T08:01:09.566Z,99918.19
2023-09-08T08:03:38.973Z,99913.36
2023-09-08T08:06:07.497Z,99911.75
2023-09-08T08:08:39.973Z,99906.94
2023-09-08T08:11:16.776Z,99904.86
2023-09-08T08:13:47.329Z,99899.88
2023-09-08T08:16:15.591Z,99897.03
2023-09-08T08:18:43.986Z,99896.46
2023-09-08T08:21:12.424Z,99894.13
2023-09-08T08:23:40.611Z,99897.44
2023-09-08T08:26:08.843Z,99897.43
2023-09-08T08:28:37.578Z,99897.35
2023-09-08T08:31:06.325Z,99894.16
2023-09-08T08:33:34.948Z,99892.02
2023-09-08T08:36:04.354Z,99892.90
2023-09-08T08:38:32.703Z,99890.79
2023-09-08T08:41:05.909Z,99891.19
2023-09-08T08:43:34.658Z,99889.78
2023-09-08T08:46:03.485Z,99887.05
2023-09-08T08:48:33.317Z,99880.90
2023-09-08T08:51:03.924Z,99882.16
2023-09-08T08:53:33.671Z,99878.75
2023-09-08T08:56:02.109Z,99876.02
2023-09-08T08:58:30.909Z,99869.78
2023-09-08T09:01:00.499Z,99869.08
2023-09-08T09:03:30.192Z,99869.38
2023-09-08T09:05:58.717Z,99866.96
2023-09-08T09:08:29.851Z,99867.48
2023-09-08T09:10:58.157Z,99866.38
2023-09-08T09:13:26.506Z,99863.64
2023-09-08T09:16:01.407Z,99859.65
2023-09-08T09:18:32.029Z,99859.98
2023-09-08T09:21:02.257Z,99858.85
2023-09-08T09:23:35.372Z,99852.74
2023-09-08T09:26:08.148Z,99851.11
2023-09-08T09:28:49.829Z,99853.35
2023-09-08T09:31:18.179Z,99848.17
2023-09-08T09:33:46.755Z,99849.61
2023-09-08T09:36:22.052Z,99846.14
2023-09-08T09:38:50.257Z,99842.96
2023-09-08T09:41:18.518Z,99840.14
2023-09-08T09:43:47.524Z,99833.59
2023-09-08T09:46:16.889Z,99831.98
2023-09-08T09:48:45.155Z,99832.34
2023-09-08T09:51:21.000Z,99831.81
2023-09-08T09:53:51.327Z,99829.20
2023-09-08T09:56:19.585Z,99825.08
2023-09-08T09:58:49.477Z,99826.17
2023-09-08T10:01:18.662Z,99819.67
2023-09-08T10:03:48.602Z,99817.75
2023-09-08T10:06:18.132Z,99821.16
2023-09-08T10:08:46.839Z,99817.95
2023-09-08T10:11:16.252Z,99819.55
2023-09-08T10:13:48.309Z,99818.55
2023-09-08T10:16:20.764Z,99821.63
2023-09-08T10:18:52.392Z,99821.94
2023-09-08T10:21:24.544Z,99821.46
2023-09-08T10:24:04.871Z,99821.84
2023-09-08T10:26:36.039Z,99821.86
2023-09-08T10:29:04.431Z,99818.80
2023-09-08T10:31:33.015Z,99818.16
2023-09-08T10:34:03.701Z,99816.96
2023-09-08T10:36:33.641Z,99813.89
2023-09-08T10:39:43.261Z,99809.19
2023-09-08T10:42:17.314Z,99802.89
2023-09-08T10:44:48.532Z,99804.10
2023-09-08T10:47:24.573Z,99797.73
2023-09-08T10:50:00.379Z,99793.98
2023-09-08T10:52:30.089Z,99795.50
2023-09-08T10:54:59.171Z,99792.88
2023-09-08T10:57:27.542Z,99789.50
2023-09-08T10:59:58.789Z,99790.92
2023-09-08T11:02:40.515Z,99787.89
2023-09-08T11:05:11.684Z,99788.64
2023-09-08T11:07:41.835Z,99786.61
2023-09-08T11:10:11.603Z,99784.81
2023-09-08T11:12:39.897Z,99787.24
2023-09-08T11:15:09.972Z,99785.18
2023-09-08T11:17:43.625Z,99784.15
2023-09-08T11:20:13.889Z,99785.64
2023-09-08T11:22:42.786Z,99784.14
2023-09-08T11:25:12.905Z,99783.85
2023-09-08T11:27:41.483Z,99780.65
2023-09-08T11:30:10.404Z,99781.32
2023-09-08T11:32:38.756Z,99781.80
2023-09-08T11:35:10.113Z,99779.73
2023-09-08T11:37:39.975Z,99774.27
2023-09-08T11:40:12.213Z,99774.39
2023-09-08T11:42:46.240Z,99774.23
2023-09-08T11:45:19.446Z,99776.09
2023-09-08T11:47:47.882Z,99776.21
2023-09-08T11:50:18.347Z,99776.30
2023-09-08T11:52:48.922Z,99771.70
2023-09-08T11:55:19.199Z,99766.20
2023-09-08T11:57:51.364Z,99762.20
2023-09-08T12:00:22.436Z,99764.55
2023-09-08T12:02:51.574Z,99761.23
2023-09-08T12:05:25.630Z,99754.71
2023-09-08T12:07:54.622Z,99755.86
2023-09-08T12:10:23.916Z,99755.30
2023-09-08T12:12:59.565Z,99752.23
2023-09-08T12:15:34.516Z,99747.40
2023-09-08T12:18:06.978Z,99743.12
2023-09-08T12:20:36.475Z,99744.20
2023-09-08T12:23:08.897Z,99745.14
2023-09-08T12:25:46.478Z,99740.45
2023-09-08T12:28:16.924Z,99734.94
2023-09-08T12:30:46.170Z,99736.44
2023-09-08T12:33:21.889Z,99729.29
2023-09-08T12:35:55.027Z,99723.93
2023-09-08T12:38:24.874Z,99724.21
2023-09-08T12:40:54.186Z,99722.73
2023-09-08T12:43:28.169Z,99719.22
2023-09-08T12:45:57.615Z,99715.50
2023-09-08T12:48:26.573Z,99715.09
2023-09-08T12:50:55.037Z,99717.00
2023-09-08T12:53:24.659Z,99714.73
2023-09-08T12:55:53.264Z,99715.17
2023-09-08T12:58:22.071Z,99712.71
2023-09-08T13:00:51.548Z,99709.66
2023-09-08T13:03:19.803Z,99704.11
2023-09-08T13:05:48.184Z,99697.67
2023-09-08T13:08:16.682Z,99697.16
2023-09-08T13:10:44.916Z,99697.95
2023-09-08T13:13:13.118Z,99700.35
2023-09-08T13:15:41.425Z,99697.17
2023-09-08T13:18:09.753Z,99698.08
2023-09-08T13:20:38.073Z,99699.75
2023-09-08T13:23:06.435Z,99699.23
2023-09-08T13:25:34.637Z,99698.67
2023-09-08T13:28:02.933Z,99700.78
2023-09-08T13:30:31.242Z,99701.49
2023-09-08T13:32:59.614Z,99699.82
2023-09-08T13:35:27.835Z,99696.99
2023-09-08T13:37:55.976Z,99697.70
2023-09-08T13:40:24.411Z,99695.36
2023-09-08T13:42:52.952Z,99695.13
2023-09-08T13:45:21.463Z,99693.23
2023-09-08T13:47:50.531Z,99688.14
2023-09-08T13:50:20.856Z,99693.40
2023-09-08T13:52:51.398Z,99692.64
2023-09-08T13:55:36.776Z,99685.08
2023-09-08T13:58:09.428Z,99684.30
2023-09-08T14:00:44.928Z,99683.17
2023-09-08T14:03:15.879Z,99681.64
2023-09-08T14:08:28.536Z,99678.22
2023-09-08T14:13:29.551Z,99674.11
2023-09-08T14:15:59.362Z,99672.69
2023-09-08T14:18:29.120Z,99672.80
2023-09-08T14:20:57.288Z,99670.45
2023-09-08T14:23:25.538Z,99667.52
2023-09-08T14:25:53.885Z,99668.08
2023-09-08T14:28:22.431Z,99668.81
2023-09-08T14:30:52.433Z,99663.16
2023-09-08T14:33:21.261Z,99658.80
2023-09-08T14:35:52.702Z,99660.41
2023-09-08T14:38:25.177Z,99657.27
2023-09-08T14:41:01.693Z,99654.88
2023-09-08T14:43:31.067Z,99652.16
2023-09-08T14:45:59.316Z,99647.65
2023-09-08T14:48:27.802Z,99644.28
2023-09-08T14:50:59.345Z,99646.17
2023-09-08T14:53:30.097Z,99640.41
2023-09-08T14:56:01.404Z,99641.76
2023-09-08T14:58:35.095Z,99640.27
2023-09-08T15:01:08.466Z,99639.39
2023-09-08T15:03:37.350Z,99640.60
2023-09-08T15:06:05.948Z,99642.60
2023-09-08T15:08:34.679Z,99644.55
2023-09-08T15:11:02.812Z,99644.40
2023-09-08T15:13:31.134Z,99642.36
2023-09-08T15:16:00.753Z,99636.92
2023-09-08T15:18:29.022Z,99635.17
2023-09-08T15:20:58.277Z,99631.20
2023-09-08T15:23:26.554Z,99630.82
2023-09-08T15:25:57.052Z,99629.33
2023-09-08T15:28:26.006Z,99631.64
2023-09-08T15:30:55.976Z,99626.41
2023-09-08T15:33:24.944Z,99626.02
2023-09-08T15:35:55.916Z,99623.01
2023-09-08T15:38:24.706Z,99623.36
2023-09-08T15:41:18.490Z,99623.83
2023-09-08T15:43:54.432Z,99619.83
2023-09-08T15:46:22.925Z,99619.88
2023-09-08T15:48:51.278Z,99625.33
2023-09-08T15:51:19.559Z,99623.65
2023-09-08T15:53:47.967Z,99620.42
2023-09-08T15:56:16.304Z,99620.15
2023-09-08T15:58:44.632Z,99623.17
2023-09-08T16:01:13.607Z,99622.34
2023-09-08T16:03:42.655Z,99621.59
2023-09-08T16:06:13.996Z,99621.60
2023-09-08T16:08:42.579Z,99622.77
2023-09-08T16:11:10.857Z,99624.20
2023-09-08T16:13:39.349Z,99618.42
2023-09-08T16:16:07.952Z,99616.88
2023-09-08T16:18:36.268Z,99612.93
2023-09-08T16:21:04.630Z,99610.77
2023-09-08T16:23:32.928Z,99608.15
2023-09-08T16:26:01.209Z,99606.20
2023-09-08T16:28:29.534Z,99607.26
2023-09-08T16:31:04.254Z,99605.00
2023-09-08T16:33:32.689Z,99604.60
2023-09-08T16:36:01.210Z,99606.23
2023-09-08T16:38:29.438Z,99607.77
2023-09-08T16:40:59.208Z,99607.02
2023-09-08T16:43:27.887Z,99607.89
2023-09-08T16:45:56.053Z,99606.67
2023-09-08T16:48:25.017Z,99608.86
2023-09-08T16:50:53.336Z,99611.25
2023-09-08T16:53:21.513Z,99609.97
2023-09-08T16:55:49.729Z,99609.66
2023-09-08T16:58:18.035Z,99611.55
2023-09-08T17:00:46.159Z,99611.29
2023-09-08T17:03:14.463Z,99613.17
2023-09-08T17:05:44.339Z,99620.67
2023-09-08T17:08:12.630Z,99617.89
2023-09-08T17:10:40.973Z,99618.70
2023-09-08T17:13:09.343Z,99620.80
2023-09-08T17:15:37.652Z,99625.20
2023-09-08T17:18:06.155Z,99622.40
2023-09-08T17:20:34.508Z,99624.61
2023-09-08T17:23:05.743Z,99628.64
2023-09-08T17:25:33.971Z,99633.74
2023-09-08T17:28:03.070Z,99635.98
2023-09-08T17:30:31.237Z,99639.98
2023-09-08T17:32:59.517Z,99641.52
2023-09-08T17:35:28.268Z,99642.37
2023-09-08T17:37:56.466Z,99642.94
2023-09-08T17:40:24.652Z,99643.32
2023-09-08T17:42:52.925Z,99646.05
2023-09-08T17:45:21.105Z,99645.23
2023-09-08T17:47:49.402Z,99649.30
2023-09-08T17:50:18.196Z,99653.20
2023-09-08T17:52:46.453Z,99650.67
2023-09-08T17:55:14.939Z,99654.53
2023-09-08T17:57:43.199Z,99657.40
2023-09-08T18:00:11.798Z,99657.60
2023-09-08T18:02:40.437Z,99658.23
2023-09-08T18:05:09.477Z,99664.12
2023-09-08T18:07:38.183Z,99659.83
2023-09-08T18:10:08.882Z,99657.68
2023-09-08T18:12:37.441Z,99659.46
2023-09-08T18:15:06.264Z,99660.05
2023-09-08T18:17:34.908Z,99659.89
2023-09-08T18:20:04.900Z,99664.50
2023-09-08T18:22:33.137Z,99664.92
2023-09-08T18:25:01.982Z,99670.52
2023-09-08T18:27:31.372Z,99673.61
2023-09-08T18:29:59.738Z,99675.27
2023-09-08T18:32:28.297Z,99672.31
2023-09-08T18:34:56.717Z,99673.84
2023-09-08T18:37:24.989Z,99672.91
2023-09-08T18:39:53.464Z,99672.88
2023-09-08T18:42:21.936Z,99670.91
2023-09-08T18:44:50.311Z,99672.52
2023-09-08T18:47:19.893Z,99671.75
2023-09-08T18:49:48.110Z,99673.27
2023-09-08T18:52:16.341Z,99674.73
2023-09-08T18:54:45.228Z,99673.16
2023-09-08T18:57:13.677Z,99671.02
2023-09-08T18:59:41.988Z,99670.38
2023-09-08T19:02:13.002Z,99669.15
2023-09-08T19:04:41.318Z,99668.11
2023-09-08T19:07:09.697Z,99672.41
2023-09-08T19:09:37.912Z,99673.56
2023-09-08T19:12:06.318Z,99671.41
2023-09-08T19:14:34.644Z,99672.09
2023-09-08T19:17:04.092Z,99669.86
2023-09-08T19:19:32.324Z,99671.18
2023-09-08T19:22:00.710Z,99670.43
2023-09-08T19:24:30.846Z,99673.30
2023-09-08T19:26:59.705Z,99671.66
2023-09-08T19:29:27.971Z,99671.80
2023-09-08T19:31:56.259Z,99673.04
2023-09-08T19:34:24.537Z,99670.24
2023-09-08T19:36:52.853Z,99674.81
2023-09-08T19:39:21.135Z,99675.28
2023-09-08T19:41:49.398Z,99672.86
2023-09-08T19:44:17.701Z,99678.11
2023-09-08T19:46:46.043Z,99680.49
2023-09-08T19:49:14.404Z,99679.09
2023-09-08T19:51:42.725Z,99683.25
2023-09-08T19:54:12.096Z,99685.30
2023-09-08T19:56:40.361Z,99686.44
2023-09-08T19:59:08.619Z,99686.39
2023-09-08T20:01:37.123Z,99680.73
2023-09-08T20:04:05.738Z,99682.17
2023-09-08T20:06:35.664Z,99681.84
2023-09-08T20:09:11.676Z,99684.33
2023-09-08T20:11:42.398Z,99686.93
2023-09-08T20:14:11.467Z,99686.48
2023-09-08T20:16:40.779Z,99685.82
2023-09-08T20:19:09.342Z,99684.19
2023-09-08T20:21:37.665Z,99684.86
2023-09-08T20:24:07.643Z,99689.42
2023-09-08T20:26:36.017Z,99685.45
2023-09-08T20:29:04.328Z,99688.30
2023-09-08T20:31:32.821Z,99687.76
2023-09-08T20:34:01.025Z,99689.23
2023-09-08T20:36:29.254Z,99690.71
2023-09-08T20:38:57.507Z,99694.13
2023-09-08T20:41:25.878Z,99692.54
2023-09-08T20:43:54.193Z,99690.19
2023-09-08T20:46:22.345Z,99691.42
2023-09-08T20:48:50.616Z,99691.04
2023-09-08T20:51:21.318Z,99692.44
2023-09-08T20:53:49.693Z,99692.28
2023-09-08T20:56:17.961Z,99691.98
2023-09-08T20:58:46.272Z,99691.05
2023-09-08T21:01:14.554Z,99692.50
2023-09-08T21:03:43.062Z,99694.27
2023-09-08T21:06:13.564Z,99693.40
2023-09-08T21:08:41.766Z,99690.51
2023-09-08T21:11:10.592Z,99690.59
2023-09-08T21:13:39.091Z,99687.50
2023-09-08T21:16:07.636Z,99689.65
2023-09-08T21:18:36.019Z,99695.18
2023-09-08T21:21:05.081Z,99697.89
2023-09-08T21:23:33.334Z,99700.19
2023-09-08T21:26:05.463Z,99699.77
2023-09-08T21:28:34.629Z,99699.69
2023-09-08T21:31:09.075Z,99697.63
2023-09-08T21:33:38.918Z,99697.83
2023-09-08T21:36:08.565Z,99695.58
2023-09-08T21:38:37.089Z,99697.54
2023-09-08T21:41:10.980Z,99692.75
2023-09-08T21:43:39.800Z,99687.48
2023-09-08T21:46:09.836Z,99688.98
2023-09-08T21:48:40.196Z,99687.59
2023-09-08T21:51:09.859Z,99689.73
2023-09-08T21:53:38.641Z,99693.00
2023-09-08T21:56:07.508Z,99694.52
2023-09-08T21:58:35.962Z,99695.15
2023-09-08T22:01:04.588Z,99697.73
2023-09-08T22:03:33.123Z,99703.16
2023-09-08T22:06:01.828Z,99702.16
2023-09-08T22:08:30.124Z,99698.84
2023-09-08T22:11:07.719Z,99700.73
2023-09-08T22:13:37.701Z,99697.00
2023-09-08T22:16:06.625Z,99697.15
2023-09-08T22:18:35.830Z,99693.82
2023-09-08T22:21:05.856Z,99694.02
2023-09-08T22:23:34.353Z,99693.88
2023-09-08T22:26:04.171Z,99690.73
2023-09-08T22:28:32.562Z,99691.36
2023-09-08T22:31:00.772Z,99691.96
2023-09-08T22:33:30.783Z,99687.61
2023-09-08T22:35:59.484Z,99688.98
2023-09-08T22:38:28.338Z,99686.38
2023-09-08T22:40:56.690Z,99685.58
2023-09-08T22:43:25.975Z,99685.56
2023-09-08T22:45:55.798Z,99682.25
2023-09-08T22:48:24.637Z,99679.27
2023-09-08T22:50:52.848Z,99678.23
2023-09-08T22:53:21.208Z,99677.71
2023-09-08T22:55:49.534Z,99680.14
2023-09-08T22:58:17.821Z,99676.45
2023-09-08T23:00:46.116Z,99677.73
2023-09-08T23:03:14.499Z,99676.94
2023-09-08T23:05:43.813Z,99678.85
2023-09-08T23:08:12.066Z,99673.30
2023-09-08T23:10:40.338Z,99675.31
2023-09-08T23:13:08.582Z,99673.01
2023-09-08T23:15:36.772Z,99675.83
2023-09-08T23:18:05.250Z,99674.39
2023-09-08T23:20:33.589Z,99673.67
2023-09-08T23:23:01.810Z,99673.41
2023-09-08T23:25:32.062Z,99672.20
2023-09-08T23:28:00.415Z,99673.11
2023-09-08T23:30:28.670Z,99669.27
2023-09-08T23:32:56.941Z,99667.69
2023-09-08T23:35:25.500Z,99671.36
2023-09-08T23:37:53.708Z,99672.89
2023-09-08T23:40:22.080Z,99669.27
2023-09-08T23:42:50.322Z,99667.36
2023-09-08T23:45:18.604Z,99665.09
2023-09-08T23:47:46.787Z,99664.64
2023-09-08T23:50:15.107Z,99665.23
2023-09-08T23:52:43.372Z,99661.06
2023-09-08T23:55:12.080Z,99660.35
2023-09-08T23:57:40.271Z,99658.09
